createdAt,value
2023-03-06T00:02:16.525Z,2.70
2023-03-06T00:04:44.770Z,4.63
2023-03-06T00:07:12.881Z,4.17
2023-03-06T00:09:41.031Z,3.30
2023-03-06T00:12:10.073Z,2.40
2023-03-06T00:14:39.721Z,2.53
2023-03-06T00:17:07.989Z,4.83
2023-03-06T00:19:36.475Z,2.93
2023-03-06T00:22:04.849Z,3.73
2023-03-06T00:24:32.983Z,4.63
2023-03-06T00:27:01.144Z,4.33
2023-03-06T00:29:29.360Z,3.37
2023-03-06T00:31:59.070Z,3.03
2023-03-06T00:34:27.418Z,2.70
2023-03-06T00:36:55.691Z,5.17
2023-03-06T00:39:23.817Z,3.07
2023-03-06T00:41:51.929Z,3.60
2023-03-06T00:44:20.074Z,3.90
2023-03-06T00:46:48.222Z,4.87
2023-03-06T00:49:17.820Z,4.33
2023-03-06T00:51:45.969Z,5.30
2023-03-06T00:54:14.482Z,4.20
2023-03-06T00:56:42.728Z,5.57
2023-03-06T00:59:11.002Z,6.93
2023-03-06T01:01:39.290Z,5.27
2023-03-06T01:04:07.667Z,6.73
2023-03-06T01:06:37.452Z,4.83
2023-03-06T01:09:06.052Z,5.17
2023-03-06T01:11:34.348Z,5.33
2023-03-06T01:14:02.684Z,7.23
2023-03-06T01:16:30.967Z,8.13
2023-03-06T01:18:59.143Z,6.57
2023-03-06T01:21:27.671Z,6.07
2023-03-06T01:23:57.282Z,7.03
2023-03-06T01:26:25.395Z,7.13
2023-03-06T01:28:53.523Z,6.40
2023-03-06T01:31:21.900Z,6.77
2023-03-06T01:33:49.999Z,5.77
2023-03-06T01:36:18.352Z,9.43
2023-03-06T01:38:46.558Z,9.83
2023-03-06T01:41:16.411Z,5.90
2023-03-06T01:43:45.776Z,6.00
2023-03-06T01:46:30.417Z,6.60
2023-03-06T01:49:01.723Z,6.57
2023-03-06T01:51:33.212Z,6.33
2023-03-06T01:54:05.044Z,5.57
2023-03-06T01:56:35.008Z,6.93
2023-03-06T01:59:03.374Z,5.53
2023-03-06T02:01:33.359Z,5.87
2023-03-06T02:04:02.451Z,6.23
2023-03-06T02:06:30.467Z,9.30
2023-03-06T02:08:58.541Z,5.87
2023-03-06T02:11:27.018Z,6.57
2023-03-06T02:13:56.650Z,9.83
2023-03-06T02:16:27.551Z,7.50
2023-03-06T02:18:56.446Z,7.10
2023-03-06T02:21:27.382Z,7.67
2023-03-06T02:24:09.782Z,7.77
2023-03-06T02:26:40.421Z,7.17
2023-03-06T02:29:09.140Z,8.40
2023-03-06T02:31:37.341Z,8.13
2023-03-06T02:34:08.922Z,5.67
2023-03-06T02:36:39.788Z,8.37
2023-03-06T02:39:08.440Z,10.87
2023-03-06T02:41:37.870Z,5.57
2023-03-06T02:44:06.045Z,8.43
2023-03-06T02:46:34.218Z,8.47
2023-03-06T02:49:02.334Z,5.53
2023-03-06T02:51:30.418Z,5.90
2023-03-06T02:53:58.491Z,6.17
2023-03-06T02:56:26.529Z,6.20
2023-03-06T02:58:55.969Z,7.40
2023-03-06T03:01:24.081Z,6.20
2023-03-06T03:03:52.186Z,5.67
2023-03-06T03:06:20.292Z,7.27
2023-03-06T03:08:48.361Z,6.60
2023-03-06T03:11:16.429Z,11.83
2023-03-06T03:13:44.495Z,9.27
2023-03-06T03:16:16.477Z,6.67
2023-03-06T03:18:47.964Z,7.10
2023-03-06T03:21:16.419Z,7.57
2023-03-06T03:23:44.721Z,9.20
2023-03-06T03:26:16.021Z,5.53
2023-03-06T03:28:44.432Z,5.97
2023-03-06T03:31:14.173Z,6.60
2023-03-06T03:33:42.412Z,6.67
2023-03-06T03:36:11.089Z,7.10
2023-03-06T03:38:39.224Z,9.47
2023-03-06T03:41:07.740Z,7.93
2023-03-06T03:43:35.818Z,7.83
2023-03-06T03:46:03.903Z,11.17
2023-03-06T03:48:33.454Z,7.40
2023-03-06T03:51:06.418Z,5.00
2023-03-06T03:53:34.459Z,6.00
2023-03-06T03:56:02.843Z,8.80
2023-03-06T03:58:30.904Z,5.67
2023-03-06T04:00:59.058Z,6.20
2023-03-06T04:03:27.180Z,8.63
2023-03-06T04:05:58.022Z,5.97
2023-03-06T04:08:26.726Z,7.30
2023-03-06T04:10:55.462Z,7.03
2023-03-06T04:13:24.529Z,7.97
2023-03-06T04:15:54.873Z,7.13
2023-03-06T04:18:24.105Z,6.33
2023-03-06T04:20:52.180Z,7.93
2023-03-06T04:23:22.911Z,10.80
2023-03-06T04:25:51.253Z,10.90
2023-03-06T04:28:19.274Z,9.37
2023-03-06T04:30:47.526Z,8.83
2023-03-06T04:33:15.539Z,10.57
2023-03-06T04:35:43.691Z,8.57
2023-03-06T04:38:11.792Z,9.07
2023-03-06T04:40:42.281Z,12.33
2023-03-06T04:43:11.931Z,10.53
2023-03-06T04:45:40.096Z,9.17
2023-03-06T04:48:08.443Z,9.37
2023-03-06T04:50:38.009Z,8.97
2023-03-06T04:53:06.046Z,8.40
2023-03-06T04:55:34.413Z,12.90
2023-03-06T04:58:03.895Z,9.40
2023-03-06T05:00:31.966Z,8.10
2023-03-06T05:03:02.013Z,10.60
2023-03-06T05:05:30.419Z,11.13
2023-03-06T05:07:58.764Z,9.90
2023-03-06T05:10:26.954Z,14.23
2023-03-06T05:12:54.949Z,10.90
2023-03-06T05:15:24.532Z,12.10
2023-03-06T05:17:52.604Z,12.23
2023-03-06T05:20:20.778Z,11.43
2023-03-06T05:22:48.819Z,11.70
2023-03-06T05:25:17.119Z,11.20
2023-03-06T05:27:45.202Z,11.40
2023-03-06T05:30:15.291Z,11.47
2023-03-06T05:32:45.132Z,12.83
2023-03-06T05:35:19.006Z,15.07
2023-03-06T05:37:47.112Z,13.13
2023-03-06T05:40:16.703Z,12.37
2023-03-06T05:42:44.914Z,10.97
2023-03-06T05:45:13.459Z,17.47
2023-03-06T05:47:41.453Z,13.83
2023-03-06T05:50:13.925Z,17.40
2023-03-06T05:52:41.979Z,14.93
2023-03-06T05:55:13.409Z,11.30
2023-03-06T05:57:41.537Z,11.87
2023-03-06T06:00:11.329Z,13.80
2023-03-06T06:02:39.294Z,14.57
2023-03-06T06:05:08.241Z,12.90
2023-03-06T06:07:37.926Z,15.07
2023-03-06T06:10:07.105Z,15.60
2023-03-06T06:12:35.599Z,12.67
2023-03-06T06:15:03.714Z,13.27
2023-03-06T06:17:32.915Z,13.33
2023-03-06T06:20:00.968Z,11.13
2023-03-06T06:22:28.971Z,11.00
2023-03-06T06:24:58.540Z,15.20
2023-03-06T06:27:26.507Z,15.30
2023-03-06T06:29:54.516Z,12.43
2023-03-06T06:32:22.519Z,13.90
2023-03-06T06:34:50.566Z,14.40
2023-03-06T06:37:18.566Z,17.57
2023-03-06T06:39:46.577Z,13.83
2023-03-06T06:42:30.965Z,14.60
2023-03-06T06:45:01.157Z,18.53
2023-03-06T06:47:29.240Z,14.33
2023-03-06T06:49:57.913Z,15.87
2023-03-06T06:52:26.153Z,17.60
2023-03-06T06:54:54.491Z,16.77
2023-03-06T06:57:23.839Z,14.70
2023-03-06T06:59:53.964Z,11.80
2023-03-06T07:02:22.229Z,18.50
2023-03-06T07:05:03.077Z,14.30
2023-03-06T07:07:32.455Z,16.00
2023-03-06T07:10:00.508Z,17.10
2023-03-06T07:12:32.413Z,16.30
2023-03-06T07:15:00.444Z,18.33
2023-03-06T07:17:28.452Z,17.70
2023-03-06T07:19:56.470Z,14.53
2023-03-06T07:22:24.543Z,15.63
2023-03-06T07:24:52.760Z,18.23
2023-03-06T07:27:22.958Z,17.63
2023-03-06T07:29:52.370Z,16.67
2023-03-06T07:32:20.958Z,16.50
2023-03-06T07:34:49.015Z,15.43
2023-03-06T07:37:16.989Z,18.97
2023-03-06T07:39:45.085Z,15.77
2023-03-06T07:42:14.119Z,16.67
2023-03-06T07:44:42.279Z,19.30
2023-03-06T07:47:13.810Z,16.53
2023-03-06T07:49:41.757Z,15.10
2023-03-06T07:52:09.737Z,18.63
2023-03-06T07:54:37.720Z,20.03
2023-03-06T07:57:05.820Z,20.77
2023-03-06T07:59:33.806Z,18.93
2023-03-06T08:02:01.810Z,19.83
2023-03-06T08:04:31.150Z,19.53
2023-03-06T08:07:00.538Z,20.20
2023-03-06T08:09:28.815Z,33.87
2023-03-06T08:11:57.109Z,32.17
2023-03-06T08:14:25.097Z,29.60
2023-03-06T08:16:55.717Z,23.50
2023-03-06T08:19:23.831Z,21.17
2023-03-06T08:21:53.224Z,22.87
2023-03-06T08:24:21.251Z,19.23
2023-03-06T08:26:49.281Z,24.33
2023-03-06T08:29:17.357Z,23.90
2023-03-06T08:31:47.329Z,29.87
2023-03-06T08:34:18.339Z,38.50
2023-03-06T08:36:46.500Z,22.70
2023-03-06T08:39:15.872Z,28.63
2023-03-06T08:41:43.934Z,37.23
2023-03-06T08:47:30.852Z,19.40
2023-03-06T08:50:00.701Z,21.00
2023-03-06T08:52:28.895Z,21.17
2023-03-06T08:55:02.229Z,23.57
2023-03-06T08:57:30.401Z,19.43
2023-03-06T08:59:58.582Z,19.17
2023-03-06T09:02:26.596Z,19.33
2023-03-06T09:04:55.078Z,21.07
2023-03-06T09:07:23.127Z,21.90
2023-03-06T09:09:51.159Z,19.27
2023-03-06T09:12:20.593Z,20.57
2023-03-06T09:14:48.569Z,20.03
2023-03-06T09:17:16.855Z,22.03
2023-03-06T09:19:44.921Z,22.67
2023-03-06T09:22:12.958Z,18.37
2023-03-06T09:24:40.986Z,18.60
2023-03-06T09:27:08.997Z,19.83
2023-03-06T09:29:38.354Z,23.03
2023-03-06T09:32:06.930Z,21.20
2023-03-06T09:34:34.981Z,20.73
2023-03-06T09:37:03.486Z,21.00
2023-03-06T09:39:31.657Z,19.07
2023-03-06T09:42:01.037Z,19.60
2023-03-06T09:44:31.794Z,20.20
2023-03-06T09:47:29.189Z,21.10
2023-03-06T09:50:12.765Z,20.63
2023-03-06T09:52:48.343Z,24.13
2023-03-06T09:55:18.950Z,20.07
2023-03-06T09:57:54.583Z,24.83
2023-03-06T10:00:28.666Z,22.27
2023-03-06T10:03:07.123Z,21.87
2023-03-06T10:05:40.670Z,21.30
2023-03-06T10:08:22.338Z,21.23
2023-03-06T10:10:59.695Z,22.17
2023-03-06T10:13:32.952Z,25.97
2023-03-06T10:16:08.406Z,25.40
2023-03-06T10:18:39.181Z,22.27
2023-03-06T10:21:29.769Z,26.07
2023-03-06T10:24:07.925Z,19.20
2023-03-06T10:26:41.120Z,26.23
2023-03-06T10:29:28.495Z,18.60
2023-03-06T10:32:11.821Z,20.47
2023-03-06T10:34:42.791Z,20.20
2023-03-06T10:37:19.202Z,23.90
2023-03-06T10:39:47.755Z,21.63
2023-03-06T10:42:15.788Z,19.50
2023-03-06T10:44:43.827Z,21.87
2023-03-06T10:47:30.721Z,21.13
2023-03-06T10:50:02.360Z,23.80
2023-03-06T10:52:47.686Z,23.50
2023-03-06T10:55:28.141Z,21.13
2023-03-06T10:57:56.371Z,24.53
2023-03-06T11:00:32.888Z,23.93
2023-03-06T11:03:30.472Z,25.20
2023-03-06T11:06:04.424Z,25.27
2023-03-06T11:08:32.940Z,24.80
2023-03-06T11:11:03.833Z,28.43
2023-03-06T11:13:34.168Z,27.23
2023-03-06T11:16:06.372Z,27.63
2023-03-06T11:18:40.636Z,30.17
2023-03-06T11:21:29.713Z,22.97
2023-03-06T11:24:04.594Z,22.50
2023-03-06T11:26:45.181Z,23.63
2023-03-06T11:29:40.584Z,19.73
2023-03-06T11:32:15.980Z,21.83
2023-03-06T11:34:50.658Z,17.47
2023-03-06T11:37:30.903Z,19.17
2023-03-06T11:40:07.391Z,17.17
2023-03-06T11:42:40.153Z,19.50
2023-03-06T11:45:22.670Z,14.37
2023-03-06T11:47:56.761Z,14.60
2023-03-06T11:50:32.128Z,13.63
2023-03-06T11:53:03.307Z,15.33
2023-03-06T11:55:41.227Z,14.90
2023-03-06T11:58:41.854Z,19.50
2023-03-06T12:01:14.114Z,17.60
2023-03-06T12:03:59.472Z,15.90
2023-03-06T12:06:41.871Z,17.33
2023-03-06T12:09:34.812Z,16.37
2023-03-06T12:14:58.430Z,17.20
2023-03-06T12:17:35.843Z,19.13
2023-03-06T12:20:20.866Z,22.20
2023-03-06T12:22:57.650Z,21.00
2023-03-06T12:25:35.675Z,18.67
2023-03-06T12:28:27.430Z,20.57
2023-03-06T12:31:13.738Z,18.50
2023-03-06T12:33:53.557Z,20.87
2023-03-06T12:36:37.095Z,16.23
2023-03-06T12:39:11.406Z,18.43
2023-03-06T12:41:58.798Z,20.17
2023-03-06T12:45:01.183Z,15.10
2023-03-06T12:47:32.274Z,18.13
2023-03-06T12:50:05.818Z,17.93
2023-03-06T12:52:35.900Z,16.07
2023-03-06T12:55:08.717Z,14.70
2023-03-06T12:57:38.154Z,13.13
2023-03-06T13:00:07.485Z,12.33
2023-03-06T13:03:02.723Z,12.87
2023-03-06T13:06:02.025Z,7.90
2023-03-06T13:08:58.446Z,6.53
2023-03-06T13:11:40.141Z,6.40
2023-03-06T13:14:24.216Z,5.43
2023-03-06T13:16:52.544Z,6.33
2023-03-06T13:19:24.091Z,3.37
2023-03-06T13:22:24.706Z,5.20
2023-03-06T13:25:47.850Z,2.93
2023-03-06T13:28:39.286Z,4.70
2023-03-06T13:31:12.572Z,3.00
2023-03-06T13:33:54.349Z,2.40
2023-03-06T13:36:25.365Z,2.70
2023-03-06T13:39:01.736Z,1.73
2023-03-06T13:41:58.603Z,1.43
2023-03-06T13:44:49.676Z,1.63
2023-03-06T13:48:02.775Z,3.13
2023-03-06T13:50:40.906Z,2.70
2023-03-06T13:53:50.418Z,1.77
2023-03-06T13:56:57.139Z,2.33
2023-03-06T14:00:03.121Z,2.23
2023-03-06T14:02:52.161Z,1.27
2023-03-06T14:05:20.738Z,1.27
2023-03-06T14:07:55.529Z,1.57
2023-03-06T14:10:25.847Z,1.37
2023-03-06T14:13:04.584Z,1.60
2023-03-06T14:15:45.412Z,3.73
2023-03-06T14:18:34.895Z,2.93
2023-03-06T14:21:04.452Z,2.70
2023-03-06T14:23:38.052Z,2.63
2023-03-06T14:26:15.504Z,2.50
2023-03-06T14:28:45.312Z,1.47
2023-03-06T14:31:18.732Z,1.30
2023-03-06T14:33:53.096Z,2.00
2023-03-06T14:36:23.287Z,1.47
2023-03-06T14:38:54.767Z,1.77
2023-03-06T14:41:27.947Z,8.00
2023-03-06T14:44:19.675Z,6.37
2023-03-06T14:46:51.276Z,2.30
2023-03-06T14:49:21.706Z,4.30
2023-03-06T14:51:52.009Z,1.47
2023-03-06T14:54:23.441Z,1.90
2023-03-06T14:56:55.279Z,1.10
2023-03-06T14:59:26.915Z,1.30
2023-03-06T15:02:00.242Z,4.37
2023-03-06T15:04:36.656Z,3.23
2023-03-06T15:07:09.216Z,2.27
2023-03-06T15:09:40.329Z,2.30
2023-03-06T15:12:29.944Z,1.93
2023-03-06T15:15:01.690Z,1.23
2023-03-06T15:17:31.102Z,1.30
2023-03-06T15:20:00.871Z,1.57
2023-03-06T15:22:32.863Z,1.47
2023-03-06T15:25:22.413Z,1.33
2023-03-06T15:27:52.490Z,1.67
2023-03-06T15:30:29.240Z,1.03
2023-03-06T15:33:23.896Z,0.70
2023-03-06T15:35:57.148Z,2.97
2023-03-06T15:38:31.016Z,2.03
2023-03-06T15:41:00.671Z,1.50
2023-03-06T15:43:29.820Z,1.10
2023-03-06T15:46:02.270Z,2.17
2023-03-06T15:48:30.420Z,1.10
2023-03-06T15:50:58.568Z,2.60
2023-03-06T15:53:26.877Z,1.50
2023-03-06T15:55:55.256Z,2.90
2023-03-06T15:58:26.900Z,2.70
2023-03-06T16:00:55.041Z,1.40
2023-03-06T16:03:24.488Z,1.80
2023-03-06T16:05:52.542Z,2.27
2023-03-06T16:08:20.586Z,2.27
2023-03-06T16:10:50.614Z,2.47
2023-03-06T16:13:23.230Z,3.80
2023-03-06T16:15:51.952Z,5.87
2023-03-06T16:18:20.298Z,8.00
2023-03-06T16:20:50.923Z,8.97
2023-03-06T16:23:19.028Z,11.83
2023-03-06T16:25:49.886Z,4.63
2023-03-06T16:28:18.133Z,2.53
2023-03-06T16:30:46.535Z,3.10
2023-03-06T16:33:15.134Z,2.60
2023-03-06T16:35:46.461Z,4.40
2023-03-06T16:38:16.756Z,2.70
2023-03-06T16:40:44.966Z,3.13
2023-03-06T16:43:16.057Z,3.33
2023-03-06T16:45:44.883Z,3.23
2023-03-06T16:48:17.031Z,4.00
2023-03-06T16:50:45.484Z,3.53
2023-03-06T16:53:15.427Z,3.97
2023-03-06T16:55:43.770Z,3.83
2023-03-06T16:58:11.968Z,5.33
2023-03-06T17:00:40.173Z,4.40
2023-03-06T17:03:08.436Z,7.03
2023-03-06T17:05:38.085Z,6.00
2023-03-06T17:08:06.651Z,5.53
2023-03-06T17:10:36.221Z,5.33
2023-03-06T17:13:05.121Z,4.97
2023-03-06T17:15:33.239Z,7.73
2023-03-06T17:18:01.442Z,5.00
2023-03-06T17:20:29.528Z,5.70
2023-03-06T17:22:57.587Z,5.63
2023-03-06T17:25:25.644Z,5.43
2023-03-06T17:27:55.344Z,4.43
2023-03-06T17:30:23.504Z,5.40
2023-03-06T17:32:51.514Z,7.37
2023-03-06T17:35:19.698Z,4.27
2023-03-06T17:37:47.784Z,9.07
2023-03-06T17:40:17.047Z,3.63
2023-03-06T17:42:47.031Z,6.50
2023-03-06T17:45:16.603Z,4.67
2023-03-06T17:47:44.652Z,5.93
2023-03-06T17:50:13.107Z,4.93
2023-03-06T17:52:41.063Z,5.77
2023-03-06T17:55:09.861Z,7.10
2023-03-06T17:57:37.818Z,8.23
2023-03-06T18:00:07.097Z,7.47
2023-03-06T18:02:36.728Z,7.97
2023-03-06T18:05:05.154Z,7.77
2023-03-06T18:07:33.199Z,6.47
2023-03-06T18:10:01.201Z,6.70
2023-03-06T18:12:29.386Z,5.27
2023-03-06T18:14:57.434Z,7.73
2023-03-06T18:17:25.423Z,10.30
2023-03-06T18:19:56.701Z,12.80
2023-03-06T18:22:24.686Z,10.70
2023-03-06T18:24:52.884Z,8.10
2023-03-06T18:27:21.847Z,8.50
2023-03-06T18:29:52.119Z,8.97
2023-03-06T18:32:20.213Z,15.83
2023-03-06T18:34:50.549Z,7.00
2023-03-06T18:37:20.042Z,7.73
2023-03-06T18:39:48.177Z,6.50
2023-03-06T18:42:16.265Z,8.07
2023-03-06T18:44:47.688Z,5.23
2023-03-06T18:47:16.497Z,7.07
2023-03-06T18:49:46.086Z,7.83
2023-03-06T18:52:14.502Z,7.37
2023-03-06T18:54:44.005Z,8.03
2023-03-06T18:57:12.276Z,6.77
2023-03-06T18:59:40.253Z,8.50
2023-03-06T19:02:10.502Z,6.80
2023-03-06T19:04:38.794Z,9.13
2023-03-06T19:07:07.533Z,9.13
2023-03-06T19:09:35.654Z,12.13
2023-03-06T19:12:05.707Z,11.90
2023-03-06T19:14:33.690Z,11.67
2023-03-06T19:17:01.947Z,10.27
2023-03-06T19:19:29.949Z,12.13
2023-03-06T19:21:59.525Z,12.87
2023-03-06T19:24:27.701Z,14.13
2023-03-06T19:26:55.746Z,29.47
2023-03-06T19:29:25.247Z,42.93
2023-03-06T19:31:53.682Z,59.70
2023-03-06T19:34:21.682Z,26.43
2023-03-06T19:36:51.393Z,13.77
2023-03-06T19:39:19.608Z,16.43
2023-03-06T19:41:48.275Z,12.77
2023-03-06T19:44:16.678Z,11.07
2023-03-06T19:46:46.065Z,12.30
2023-03-06T19:49:17.917Z,11.33
2023-03-06T19:51:46.509Z,11.77
2023-03-06T19:54:15.135Z,12.30
2023-03-06T19:56:43.227Z,12.47
2023-03-06T19:59:11.506Z,10.03
2023-03-06T20:01:39.686Z,11.43
2023-03-06T20:04:09.213Z,10.47
2023-03-06T20:06:38.735Z,10.73
2023-03-06T20:09:08.766Z,10.70
2023-03-06T20:11:37.099Z,9.13
2023-03-06T20:14:06.638Z,7.73
2023-03-06T20:16:35.382Z,9.53
2023-03-06T20:19:04.117Z,8.73
2023-03-06T20:21:35.437Z,7.73
2023-03-06T20:24:04.082Z,10.97
2023-03-06T20:26:34.054Z,8.73
2023-03-06T20:29:02.309Z,10.43
2023-03-06T20:31:31.609Z,11.43
2023-03-06T20:34:00.741Z,11.00
2023-03-06T20:36:30.796Z,9.13
2023-03-06T20:39:02.460Z,8.10
2023-03-06T20:41:31.602Z,10.83
2023-03-06T20:44:00.275Z,10.20
2023-03-06T20:46:28.413Z,10.10
2023-03-06T20:48:58.120Z,10.40
2023-03-06T20:51:28.605Z,12.87
2023-03-06T20:53:57.147Z,12.73
2023-03-06T20:56:29.212Z,10.57
2023-03-06T20:58:57.945Z,10.07
2023-03-06T21:01:27.740Z,9.80
2023-03-06T21:03:57.167Z,11.37
2023-03-06T21:06:25.636Z,12.17
2023-03-06T21:08:53.790Z,9.57
2023-03-06T21:11:21.972Z,11.70
2023-03-06T21:13:51.346Z,9.23
2023-03-06T21:16:21.650Z,8.93
2023-03-06T21:18:49.948Z,11.27
2023-03-06T21:21:20.009Z,6.97
2023-03-06T21:23:48.967Z,11.20
2023-03-06T21:26:19.133Z,10.63
2023-03-06T21:28:47.273Z,8.57
2023-03-06T21:31:18.627Z,9.17
2023-03-06T21:33:47.227Z,9.43
2023-03-06T21:36:15.589Z,10.43
2023-03-06T21:38:43.570Z,10.67
2023-03-06T21:41:13.894Z,10.47
2023-03-06T21:43:42.658Z,10.43
2023-03-06T21:46:11.093Z,11.30
2023-03-06T21:48:40.555Z,9.63
2023-03-06T21:51:10.669Z,8.60
2023-03-06T21:53:40.952Z,9.43
2023-03-06T21:56:09.751Z,11.33
2023-03-06T21:58:38.015Z,9.37
2023-03-06T22:01:10.676Z,11.80
2023-03-06T22:03:40.078Z,10.50
2023-03-06T22:06:09.926Z,10.67
2023-03-06T22:08:37.958Z,13.13
2023-03-06T22:11:10.551Z,10.27
2023-03-06T22:13:39.053Z,11.43
2023-03-06T22:16:08.050Z,11.10
2023-03-06T22:18:36.679Z,12.77
2023-03-06T22:21:09.358Z,14.23
2023-03-06T22:23:37.657Z,17.83
2023-03-06T22:26:07.432Z,15.60
2023-03-06T22:28:35.872Z,12.93
2023-03-06T22:31:07.759Z,17.00
2023-03-06T22:33:35.987Z,16.63
2023-03-06T22:36:06.284Z,12.40
2023-03-06T22:38:36.511Z,13.53
2023-03-06T22:41:05.818Z,13.13
2023-03-06T22:43:34.626Z,15.33
2023-03-06T22:46:03.883Z,17.80
2023-03-06T22:48:31.927Z,13.43
2023-03-06T22:51:03.876Z,16.27
2023-03-06T22:53:31.879Z,13.50
2023-03-06T22:56:02.225Z,12.67
2023-03-06T22:58:34.469Z,16.20
2023-03-06T23:01:06.762Z,14.10
2023-03-06T23:03:38.676Z,16.23
2023-03-06T23:06:08.697Z,15.40
2023-03-06T23:08:36.771Z,15.60
2023-03-06T23:11:09.929Z,15.10
2023-03-06T23:13:38.372Z,17.37
2023-03-06T23:16:07.862Z,17.50
2023-03-06T23:18:36.836Z,15.00
2023-03-06T23:21:07.808Z,16.60
2023-03-06T23:23:36.098Z,14.57
2023-03-06T23:26:06.013Z,16.43
2023-03-06T23:28:34.877Z,14.70
2023-03-06T23:31:08.105Z,18.63
2023-03-06T23:33:36.950Z,17.13
2023-03-06T23:36:06.378Z,15.07
2023-03-06T23:38:34.858Z,16.97
2023-03-06T23:41:03.251Z,17.63
2023-03-06T23:43:33.408Z,14.27
2023-03-06T23:46:01.705Z,19.30
2023-03-06T23:48:30.460Z,15.80
2023-03-06T23:50:58.698Z,17.20
2023-03-06T23:53:26.879Z,16.77
2023-03-06T23:55:54.994Z,19.40
2023-03-06T23:58:23.029Z,20.23
